sensor_id;sensor_type;location;lat;lon;timestamp;P1;durP1;ratioP1;P2;durP2;ratioP2
35188;SDS011;21762;54.480;18.556;2023-07-31T00:02:17;2.63;;;1.88;;
35188;SDS011;21762;54.480;18.556;2023-07-31T00:04:48;6.32;;;2.35;;
35188;SDS011;21762;54.480;18.556;2023-07-31T00:07:17;3.25;;;1.98;;
35188;SDS011;21762;54.480;18.556;2023-07-31T00:09:46;6.35;;;2.20;;
35188;SDS011;21762;54.480;18.556;2023-07-31T00:12:15;5.45;;;2.28;;
35188;SDS011;21762;54.480;18.556;2023-07-31T00:14:44;5.05;;;2.25;;
35188;SDS011;21762;54.480;18.556;2023-07-31T00:17:13;3.42;;;1.83;;
35188;SDS011;21762;54.480;18.556;2023-07-31T00:19:42;8.30;;;2.55;;
35188;SDS011;21762;54.480;18.556;2023-07-31T00:22:14;3.88;;;2.55;;
35188;SDS011;21762;54.480;18.556;2023-07-31T00:24:44;4.13;;;2.42;;
35188;SDS011;21762;54.480;18.556;2023-07-31T00:27:13;9.55;;;2.58;;
35188;SDS011;21762;54.480;18.556;2023-07-31T00:29:43;9.63;;;2.28;;
35188;SDS011;21762;54.480;18.556;2023-07-31T00:32:12;6.43;;;2.25;;
35188;SDS011;21762;54.480;18.556;2023-07-31T00:34:41;3.90;;;2.38;;
35188;SDS011;21762;54.480;18.556;2023-07-31T00:37:10;9.85;;;2.63;;
35188;SDS011;21762;54.480;18.556;2023-07-31T00:39:41;3.08;;;2.03;;
35188;SDS011;21762;54.480;18.556;2023-07-31T00:42:10;9.43;;;2.88;;
35188;SDS011;21762;54.480;18.556;2023-07-31T00:44:40;6.65;;;2.20;;
35188;SDS011;21762;54.480;18.556;2023-07-31T00:47:09;5.78;;;2.50;;
35188;SDS011;21762;54.480;18.556;2023-07-31T00:49:39;2.83;;;2.13;;
35188;SDS011;21762;54.480;18.556;2023-07-31T00:52:08;9.65;;;2.88;;
35188;SDS011;21762;54.480;18.556;2023-07-31T00:54:38;6.20;;;2.15;;
35188;SDS011;21762;54.480;18.556;2023-07-31T00:57:08;3.42;;;2.30;;
35188;SDS011;21762;54.480;18.556;2023-07-31T00:59:37;3.42;;;2.08;;
35188;SDS011;21762;54.480;18.556;2023-07-31T01:02:07;3.58;;;2.53;;
35188;SDS011;21762;54.480;18.556;2023-07-31T01:04:37;3.78;;;2.80;;
35188;SDS011;21762;54.480;18.556;2023-07-31T01:07:07;7.32;;;2.55;;
35188;SDS011;21762;54.480;18.556;2023-07-31T01:09:40;6.22;;;2.22;;
35188;SDS011;21762;54.480;18.556;2023-07-31T01:12:15;3.80;;;2.42;;
35188;SDS011;21762;54.480;18.556;2023-07-31T01:14:51;5.40;;;2.15;;
35188;SDS011;21762;54.480;18.556;2023-07-31T01:17:20;3.53;;;2.35;;
35188;SDS011;21762;54.480;18.556;2023-07-31T01:19:49;9.48;;;2.70;;
35188;SDS011;21762;54.480;18.556;2023-07-31T01:22:24;4.55;;;2.28;;
35188;SDS011;21762;54.480;18.556;2023-07-31T01:25:11;6.10;;;2.40;;
35188;SDS011;21762;54.480;18.556;2023-07-31T01:27:49;4.30;;;2.58;;
35188;SDS011;21762;54.480;18.556;2023-07-31T01:30:22;6.75;;;2.55;;
35188;SDS011;21762;54.480;18.556;2023-07-31T01:32:54;5.70;;;2.85;;
35188;SDS011;21762;54.480;18.556;2023-07-31T01:35:23;6.43;;;2.83;;
35188;SDS011;21762;54.480;18.556;2023-07-31T01:37:53;8.77;;;3.22;;
35188;SDS011;21762;54.480;18.556;2023-07-31T01:40:22;4.63;;;2.42;;
35188;SDS011;21762;54.480;18.556;2023-07-31T01:42:52;10.82;;;2.83;;
35188;SDS011;21762;54.480;18.556;2023-07-31T01:45:22;4.55;;;2.47;;
35188;SDS011;21762;54.480;18.556;2023-07-31T01:47:51;7.10;;;2.90;;
35188;SDS011;21762;54.480;18.556;2023-07-31T01:50:20;5.65;;;2.80;;
35188;SDS011;21762;54.480;18.556;2023-07-31T01:52:49;5.50;;;2.40;;
35188;SDS011;21762;54.480;18.556;2023-07-31T01:55:18;4.75;;;2.72;;
35188;SDS011;21762;54.480;18.556;2023-07-31T01:57:47;3.10;;;2.67;;
35188;SDS011;21762;54.480;18.556;2023-07-31T02:00:18;2.85;;;2.40;;
35188;SDS011;21762;54.480;18.556;2023-07-31T02:02:47;4.13;;;2.30;;
35188;SDS011;21762;54.480;18.556;2023-07-31T02:05:19;4.78;;;2.95;;
35188;SDS011;21762;54.480;18.556;2023-07-31T02:07:48;2.65;;;2.30;;
35188;SDS011;21762;54.480;18.556;2023-07-31T02:10:18;4.38;;;2.53;;
35188;SDS011;21762;54.480;18.556;2023-07-31T02:12:47;4.45;;;2.10;;
35188;SDS011;21762;54.480;18.556;2023-07-31T02:15:17;4.57;;;1.80;;
35188;SDS011;21762;54.480;18.556;2023-07-31T02:17:47;6.65;;;2.63;;
35188;SDS011;21762;54.480;18.556;2023-07-31T02:20:16;3.78;;;2.33;;
35188;SDS011;21762;54.480;18.556;2023-07-31T02:22:45;5.05;;;1.90;;
35188;SDS011;21762;54.480;18.556;2023-07-31T02:25:15;4.90;;;2.10;;
35188;SDS011;21762;54.480;18.556;2023-07-31T02:27:46;4.30;;;1.70;;
35188;SDS011;21762;54.480;18.556;2023-07-31T02:30:15;3.50;;;1.90;;
35188;SDS011;21762;54.480;18.556;2023-07-31T02:32:45;4.88;;;2.05;;
35188;SDS011;21762;54.480;18.556;2023-07-31T02:35:14;3.00;;;1.70;;
35188;SDS011;21762;54.480;18.556;2023-07-31T02:37:43;4.45;;;2.03;;
35188;SDS011;21762;54.480;18.556;2023-07-31T02:40:13;6.63;;;2.40;;
35188;SDS011;21762;54.480;18.556;2023-07-31T02:42:42;6.60;;;1.90;;
35188;SDS011;21762;54.480;18.556;2023-07-31T02:45:11;5.57;;;2.50;;
35188;SDS011;21762;54.480;18.556;2023-07-31T02:47:41;5.78;;;1.60;;
35188;SDS011;21762;54.480;18.556;2023-07-31T02:50:11;6.60;;;2.13;;
35188;SDS011;21762;54.480;18.556;2023-07-31T02:52:40;5.03;;;1.98;;
35188;SDS011;21762;54.480;18.556;2023-07-31T02:55:10;4.80;;;1.80;;
35188;SDS011;21762;54.480;18.556;2023-07-31T02:57:39;5.53;;;1.85;;
35188;SDS011;21762;54.480;18.556;2023-07-31T03:00:09;4.18;;;2.17;;
35188;SDS011;21762;54.480;18.556;2023-07-31T03:02:38;4.45;;;2.10;;
35188;SDS011;21762;54.480;18.556;2023-07-31T03:05:08;4.43;;;1.85;;
35188;SDS011;21762;54.480;18.556;2023-07-31T03:07:38;4.55;;;2.22;;
35188;SDS011;21762;54.480;18.556;2023-07-31T03:10:08;3.60;;;1.80;;
35188;SDS011;21762;54.480;18.556;2023-07-31T03:12:38;3.70;;;2.35;;
35188;SDS011;21762;54.480;18.556;2023-07-31T03:15:07;5.72;;;2.30;;
35188;SDS011;21762;54.480;18.556;2023-07-31T03:17:37;6.47;;;2.10;;
35188;SDS011;21762;54.480;18.556;2023-07-31T03:20:06;4.60;;;2.33;;
35188;SDS011;21762;54.480;18.556;2023-07-31T03:22:38;5.15;;;2.30;;
35188;SDS011;21762;54.480;18.556;2023-07-31T03:25:08;7.10;;;1.98;;
35188;SDS011;21762;54.480;18.556;2023-07-31T03:27:37;4.32;;;1.98;;
35188;SDS011;21762;54.480;18.556;2023-07-31T03:30:06;3.67;;;2.20;;
35188;SDS011;21762;54.480;18.556;2023-07-31T03:32:49;3.83;;;2.15;;
35188;SDS011;21762;54.480;18.556;2023-07-31T03:35:38;4.35;;;2.40;;
35188;SDS011;21762;54.480;18.556;2023-07-31T03:38:48;5.57;;;2.60;;
35188;SDS011;21762;54.480;18.556;2023-07-31T03:41:17;6.18;;;3.05;;
35188;SDS011;21762;54.480;18.556;2023-07-31T03:43:46;7.85;;;2.42;;
35188;SDS011;21762;54.480;18.556;2023-07-31T03:46:19;5.68;;;2.53;;
35188;SDS011;21762;54.480;18.556;2023-07-31T03:48:48;7.78;;;2.47;;
35188;SDS011;21762;54.480;18.556;2023-07-31T03:51:17;8.93;;;2.63;;
35188;SDS011;21762;54.480;18.556;2023-07-31T03:53:46;6.95;;;2.85;;
35188;SDS011;21762;54.480;18.556;2023-07-31T03:56:16;5.90;;;2.33;;
35188;SDS011;21762;54.480;18.556;2023-07-31T03:58:45;6.07;;;3.05;;
35188;SDS011;21762;54.480;18.556;2023-07-31T04:01:14;8.85;;;2.38;;
35188;SDS011;21762;54.480;18.556;2023-07-31T04:03:43;9.23;;;2.78;;
35188;SDS011;21762;54.480;18.556;2023-07-31T04:06:13;8.68;;;2.92;;
35188;SDS011;21762;54.480;18.556;2023-07-31T04:08:45;11.35;;;3.20;;
35188;SDS011;21762;54.480;18.556;2023-07-31T04:11:15;7.47;;;2.83;;
35188;SDS011;21762;54.480;18.556;2023-07-31T04:13:44;8.25;;;2.83;;
35188;SDS011;21762;54.480;18.556;2023-07-31T04:16:13;11.80;;;2.60;;
35188;SDS011;21762;54.480;18.556;2023-07-31T04:18:42;5.72;;;2.22;;
35188;SDS011;21762;54.480;18.556;2023-07-31T04:21:11;5.55;;;2.30;;
35188;SDS011;21762;54.480;18.556;2023-07-31T04:23:40;7.32;;;2.85;;
35188;SDS011;21762;54.480;18.556;2023-07-31T04:26:08;8.02;;;2.15;;
35188;SDS011;21762;54.480;18.556;2023-07-31T04:28:39;5.25;;;2.55;;
35188;SDS011;21762;54.480;18.556;2023-07-31T04:31:08;9.10;;;3.58;;
35188;SDS011;21762;54.480;18.556;2023-07-31T04:33:37;6.47;;;1.92;;
35188;SDS011;21762;54.480;18.556;2023-07-31T04:36:06;7.20;;;3.10;;
35188;SDS011;21762;54.480;18.556;2023-07-31T04:38:35;4.15;;;2.28;;
35188;SDS011;21762;54.480;18.556;2023-07-31T04:41:04;5.10;;;2.75;;
35188;SDS011;21762;54.480;18.556;2023-07-31T04:43:33;4.57;;;2.45;;
35188;SDS011;21762;54.480;18.556;2023-07-31T04:46:03;9.93;;;2.55;;
35188;SDS011;21762;54.480;18.556;2023-07-31T04:48:32;8.13;;;2.67;;
35188;SDS011;21762;54.480;18.556;2023-07-31T04:51:01;6.85;;;2.28;;
35188;SDS011;21762;54.480;18.556;2023-07-31T04:53:30;9.93;;;2.53;;
35188;SDS011;21762;54.480;18.556;2023-07-31T04:55:59;9.05;;;2.50;;
35188;SDS011;21762;54.480;18.556;2023-07-31T04:58:28;6.50;;;2.63;;
35188;SDS011;21762;54.480;18.556;2023-07-31T05:00:57;6.15;;;2.20;;
35188;SDS011;21762;54.480;18.556;2023-07-31T05:03:28;9.80;;;2.55;;
35188;SDS011;21762;54.480;18.556;2023-07-31T05:05:57;9.82;;;2.00;;
35188;SDS011;21762;54.480;18.556;2023-07-31T05:08:26;10.68;;;1.88;;
35188;SDS011;21762;54.480;18.556;2023-07-31T05:10:55;5.88;;;2.60;;
35188;SDS011;21762;54.480;18.556;2023-07-31T05:13:24;5.97;;;1.90;;
35188;SDS011;21762;54.480;18.556;2023-07-31T05:15:53;10.73;;;2.33;;
35188;SDS011;21762;54.480;18.556;2023-07-31T05:18:22;10.73;;;2.22;;
35188;SDS011;21762;54.480;18.556;2023-07-31T05:20:53;6.57;;;1.92;;
35188;SDS011;21762;54.480;18.556;2023-07-31T05:23:22;7.55;;;2.03;;
35188;SDS011;21762;54.480;18.556;2023-07-31T05:25:51;5.28;;;2.08;;
35188;SDS011;21762;54.480;18.556;2023-07-31T05:28:21;6.47;;;2.00;;
35188;SDS011;21762;54.480;18.556;2023-07-31T05:31:40;6.80;;;2.30;;
35188;SDS011;21762;54.480;18.556;2023-07-31T05:35:09;10.30;;;2.25;;
35188;SDS011;21762;54.480;18.556;2023-07-31T05:38:35;5.47;;;1.95;;
35188;SDS011;21762;54.480;18.556;2023-07-31T05:42:02;9.90;;;1.90;;
35188;SDS011;21762;54.480;18.556;2023-07-31T05:44:33;4.78;;;2.00;;
35188;SDS011;21762;54.480;18.556;2023-07-31T05:47:03;6.85;;;2.33;;
35188;SDS011;21762;54.480;18.556;2023-07-31T05:49:32;4.22;;;1.67;;
35188;SDS011;21762;54.480;18.556;2023-07-31T05:52:02;11.27;;;2.35;;
35188;SDS011;21762;54.480;18.556;2023-07-31T05:54:33;11.30;;;2.38;;
35188;SDS011;21762;54.480;18.556;2023-07-31T05:57:03;6.13;;;1.63;;
35188;SDS011;21762;54.480;18.556;2023-07-31T05:59:32;7.25;;;2.03;;
35188;SDS011;21762;54.480;18.556;2023-07-31T06:02:02;10.88;;;1.90;;
35188;SDS011;21762;54.480;18.556;2023-07-31T06:04:31;8.75;;;1.70;;
35188;SDS011;21762;54.480;18.556;2023-07-31T06:07:01;3.75;;;1.50;;
35188;SDS011;21762;54.480;18.556;2023-07-31T06:09:32;2.50;;;1.40;;
35188;SDS011;21762;54.480;18.556;2023-07-31T06:12:02;8.38;;;1.55;;
35188;SDS011;21762;54.480;18.556;2023-07-31T06:14:31;7.53;;;1.55;;
35188;SDS011;21762;54.480;18.556;2023-07-31T06:17:00;11.38;;;2.30;;
35188;SDS011;21762;54.480;18.556;2023-07-31T06:19:29;8.52;;;1.25;;
35188;SDS011;21762;54.480;18.556;2023-07-31T06:21:58;6.00;;;1.98;;
35188;SDS011;21762;54.480;18.556;2023-07-31T06:24:27;6.60;;;1.60;;
35188;SDS011;21762;54.480;18.556;2023-07-31T06:26:58;7.80;;;1.92;;
35188;SDS011;21762;54.480;18.556;2023-07-31T06:29:29;8.13;;;1.73;;
35188;SDS011;21762;54.480;18.556;2023-07-31T06:31:58;7.95;;;1.75;;
35188;SDS011;21762;54.480;18.556;2023-07-31T06:34:29;7.22;;;1.42;;
35188;SDS011;21762;54.480;18.556;2023-07-31T06:36:58;8.93;;;1.77;;
35188;SDS011;21762;54.480;18.556;2023-07-31T06:39:27;6.65;;;1.73;;
35188;SDS011;21762;54.480;18.556;2023-07-31T06:41:56;5.13;;;1.70;;
35188;SDS011;21762;54.480;18.556;2023-07-31T06:44:26;5.63;;;1.67;;
35188;SDS011;21762;54.480;18.556;2023-07-31T06:46:55;4.90;;;1.70;;
35188;SDS011;21762;54.480;18.556;2023-07-31T06:49:25;7.28;;;1.60;;
35188;SDS011;21762;54.480;18.556;2023-07-31T06:51:54;8.60;;;1.50;;
35188;SDS011;21762;54.480;18.556;2023-07-31T06:54:22;6.95;;;2.15;;
35188;SDS011;21762;54.480;18.556;2023-07-31T06:56:51;6.45;;;1.60;;
35188;SDS011;21762;54.480;18.556;2023-07-31T06:59:21;8.80;;;2.10;;
35188;SDS011;21762;54.480;18.556;2023-07-31T07:01:51;5.22;;;1.35;;
35188;SDS011;21762;54.480;18.556;2023-07-31T07:04:20;5.07;;;1.27;;
35188;SDS011;21762;54.480;18.556;2023-07-31T07:06:49;9.07;;;1.40;;
35188;SDS011;21762;54.480;18.556;2023-07-31T07:09:18;5.53;;;1.10;;
35188;SDS011;21762;54.480;18.556;2023-07-31T07:11:47;6.70;;;1.50;;
35188;SDS011;21762;54.480;18.556;2023-07-31T07:14:16;3.47;;;1.20;;
35188;SDS011;21762;54.480;18.556;2023-07-31T07:16:45;9.95;;;1.27;;
35188;SDS011;21762;54.480;18.556;2023-07-31T07:19:15;3.95;;;1.10;;
35188;SDS011;21762;54.480;18.556;2023-07-31T07:21:45;10.80;;;1.77;;
35188;SDS011;21762;54.480;18.556;2023-07-31T07:24:14;7.30;;;1.60;;
35188;SDS011;21762;54.480;18.556;2023-07-31T07:26:43;3.10;;;1.17;;
35188;SDS011;21762;54.480;18.556;2023-07-31T07:29:13;7.90;;;1.20;;
35188;SDS011;21762;54.480;18.556;2023-07-31T07:31:42;5.82;;;0.95;;
35188;SDS011;21762;54.480;18.556;2023-07-31T07:34:10;4.72;;;1.00;;
35188;SDS011;21762;54.480;18.556;2023-07-31T07:36:41;4.88;;;1.20;;
35188;SDS011;21762;54.480;18.556;2023-07-31T07:39:11;3.70;;;1.20;;
35188;SDS011;21762;54.480;18.556;2023-07-31T07:41:46;4.10;;;1.40;;
35188;SDS011;21762;54.480;18.556;2023-07-31T07:44:19;1.45;;;0.70;;
35188;SDS011;21762;54.480;18.556;2023-07-31T07:46:49;6.15;;;0.90;;
35188;SDS011;21762;54.480;18.556;2023-07-31T07:49:17;2.75;;;1.20;;
35188;SDS011;21762;54.480;18.556;2023-07-31T07:51:47;2.35;;;0.90;;
35188;SDS011;21762;54.480;18.556;2023-07-31T07:54:16;5.72;;;1.90;;
35188;SDS011;21762;54.480;18.556;2023-07-31T07:56:46;3.88;;;1.17;;
35188;SDS011;21762;54.480;18.556;2023-07-31T07:59:15;5.63;;;1.02;;
35188;SDS011;21762;54.480;18.556;2023-07-31T08:01:44;4.03;;;0.80;;
35188;SDS011;21762;54.480;18.556;2023-07-31T08:04:13;2.30;;;1.00;;
35188;SDS011;21762;54.480;18.556;2023-07-31T08:06:41;4.53;;;1.00;;
35188;SDS011;21762;54.480;18.556;2023-07-31T08:09:12;4.88;;;0.80;;
35188;SDS011;21762;54.480;18.556;2023-07-31T08:11:40;4.90;;;0.80;;
35188;SDS011;21762;54.480;18.556;2023-07-31T08:14:09;2.92;;;0.70;;
35188;SDS011;21762;54.480;18.556;2023-07-31T08:16:38;4.47;;;1.33;;
35188;SDS011;21762;54.480;18.556;2023-07-31T08:19:07;2.90;;;0.73;;
35188;SDS011;21762;54.480;18.556;2023-07-31T08:21:36;4.35;;;1.23;;
35188;SDS011;21762;54.480;18.556;2023-07-31T08:24:05;3.05;;;1.10;;
35188;SDS011;21762;54.480;18.556;2023-07-31T08:26:36;1.67;;;0.68;;
35188;SDS011;21762;54.480;18.556;2023-07-31T08:29:05;1.50;;;0.65;;
35188;SDS011;21762;54.480;18.556;2023-07-31T08:31:34;1.13;;;0.70;;
35188;SDS011;21762;54.480;18.556;2023-07-31T08:34:03;4.68;;;1.08;;
35188;SDS011;21762;54.480;18.556;2023-07-31T08:36:32;4.15;;;0.88;;
35188;SDS011;21762;54.480;18.556;2023-07-31T08:39:01;2.20;;;0.50;;
35188;SDS011;21762;54.480;18.556;2023-07-31T08:41:30;2.95;;;0.90;;
35188;SDS011;21762;54.480;18.556;2023-07-31T08:44:00;4.05;;;1.30;;
35188;SDS011;21762;54.480;18.556;2023-07-31T08:46:29;0.82;;;0.50;;
35188;SDS011;21762;54.480;18.556;2023-07-31T08:48:58;2.70;;;0.80;;
35188;SDS011;21762;54.480;18.556;2023-07-31T08:51:28;3.47;;;0.75;;
35188;SDS011;21762;54.480;18.556;2023-07-31T08:53:57;2.10;;;1.00;;
35188;SDS011;21762;54.480;18.556;2023-07-31T08:56:25;1.60;;;0.50;;
35188;SDS011;21762;54.480;18.556;2023-07-31T08:58:54;1.85;;;0.80;;
35188;SDS011;21762;54.480;18.556;2023-07-31T09:01:24;2.28;;;0.90;;
35188;SDS011;21762;54.480;18.556;2023-07-31T09:03:54;1.52;;;0.82;;
35188;SDS011;21762;54.480;18.556;2023-07-31T09:06:23;5.38;;;0.80;;
35188;SDS011;21762;54.480;18.556;2023-07-31T09:08:54;2.05;;;0.80;;
35188;SDS011;21762;54.480;18.556;2023-07-31T09:11:23;4.28;;;0.80;;
35188;SDS011;21762;54.480;18.556;2023-07-31T09:13:52;2.15;;;0.80;;
35188;SDS011;21762;54.480;18.556;2023-07-31T09:16:28;1.85;;;0.65;;
35188;SDS011;21762;54.480;18.556;2023-07-31T09:18:58;1.48;;;0.70;;
35188;SDS011;21762;54.480;18.556;2023-07-31T09:21:28;2.20;;;0.90;;
35188;SDS011;21762;54.480;18.556;2023-07-31T09:23:57;5.05;;;0.90;;
35188;SDS011;21762;54.480;18.556;2023-07-31T09:26:29;3.00;;;0.60;;
35188;SDS011;21762;54.480;18.556;2023-07-31T09:28:58;5.50;;;1.13;;
35188;SDS011;21762;54.480;18.556;2023-07-31T09:31:39;4.07;;;0.60;;
35188;SDS011;21762;54.480;18.556;2023-07-31T09:34:09;8.15;;;0.77;;
35188;SDS011;21762;54.480;18.556;2023-07-31T09:36:41;1.40;;;0.60;;
35188;SDS011;21762;54.480;18.556;2023-07-31T09:39:11;2.88;;;0.75;;
35188;SDS011;21762;54.480;18.556;2023-07-31T09:41:41;3.20;;;1.10;;
35188;SDS011;21762;54.480;18.556;2023-07-31T09:44:11;1.83;;;0.88;;
35188;SDS011;21762;54.480;18.556;2023-07-31T09:46:41;1.80;;;0.65;;
35188;SDS011;21762;54.480;18.556;2023-07-31T09:49:11;2.42;;;0.77;;
35188;SDS011;21762;54.480;18.556;2023-07-31T09:51:41;5.20;;;0.68;;
35188;SDS011;21762;54.480;18.556;2023-07-31T09:54:10;6.30;;;0.63;;
35188;SDS011;21762;54.480;18.556;2023-07-31T09:56:41;4.70;;;0.57;;
35188;SDS011;21762;54.480;18.556;2023-07-31T09:59:12;1.60;;;0.32;;
35188;SDS011;21762;54.480;18.556;2023-07-31T10:01:44;2.00;;;0.70;;
35188;SDS011;21762;54.480;18.556;2023-07-31T10:04:14;3.78;;;0.68;;
35188;SDS011;21762;54.480;18.556;2023-07-31T10:09:15;1.35;;;0.60;;
35188;SDS011;21762;54.480;18.556;2023-07-31T10:11:46;2.03;;;0.60;;
35188;SDS011;21762;54.480;18.556;2023-07-31T10:14:18;4.68;;;0.90;;
35188;SDS011;21762;54.480;18.556;2023-07-31T10:16:49;1.17;;;0.50;;
35188;SDS011;21762;54.480;18.556;2023-07-31T10:19:18;5.32;;;0.93;;
35188;SDS011;21762;54.480;18.556;2023-07-31T10:21:47;2.25;;;0.50;;
35188;SDS011;21762;54.480;18.556;2023-07-31T10:24:17;3.83;;;0.75;;
35188;SDS011;21762;54.480;18.556;2023-07-31T10:26:45;1.58;;;0.55;;
35188;SDS011;21762;54.480;18.556;2023-07-31T10:29:15;4.07;;;0.77;;
35188;SDS011;21762;54.480;18.556;2023-07-31T10:31:45;1.92;;;0.52;;
35188;SDS011;21762;54.480;18.556;2023-07-31T10:34:16;1.83;;;0.55;;
35188;SDS011;21762;54.480;18.556;2023-07-31T10:36:45;1.25;;;0.43;;
35188;SDS011;21762;54.480;18.556;2023-07-31T10:42:11;2.83;;;0.73;;
35188;SDS011;21762;54.480;18.556;2023-07-31T10:44:43;0.93;;;0.52;;
35188;SDS011;21762;54.480;18.556;2023-07-31T10:47:14;4.75;;;0.70;;
35188;SDS011;21762;54.480;18.556;2023-07-31T10:49:46;3.47;;;0.80;;
35188;SDS011;21762;54.480;18.556;2023-07-31T10:52:15;1.20;;;0.45;;
35188;SDS011;21762;54.480;18.556;2023-07-31T10:54:50;1.02;;;0.38;;
35188;SDS011;21762;54.480;18.556;2023-07-31T10:57:44;2.88;;;0.50;;
35188;SDS011;21762;54.480;18.556;2023-07-31T11:00:21;0.75;;;0.52;;
35188;SDS011;21762;54.480;18.556;2023-07-31T11:03:01;1.67;;;0.60;;
35188;SDS011;21762;54.480;18.556;2023-07-31T11:05:48;1.33;;;0.52;;
35188;SDS011;21762;54.480;18.556;2023-07-31T11:08:22;2.03;;;0.60;;
35188;SDS011;21762;54.480;18.556;2023-07-31T11:11:04;2.03;;;0.57;;
35188;SDS011;21762;54.480;18.556;2023-07-31T11:13:34;2.45;;;0.47;;
35188;SDS011;21762;54.480;18.556;2023-07-31T11:16:08;3.47;;;0.70;;
35188;SDS011;21762;54.480;18.556;2023-07-31T11:18:38;1.33;;;0.63;;
35188;SDS011;21762;54.480;18.556;2023-07-31T11:21:11;1.67;;;0.57;;
35188;SDS011;21762;54.480;18.556;2023-07-31T11:23:40;2.50;;;0.43;;
35188;SDS011;21762;54.480;18.556;2023-07-31T11:26:09;2.45;;;0.77;;
35188;SDS011;21762;54.480;18.556;2023-07-31T11:28:39;1.38;;;0.50;;
35188;SDS011;21762;54.480;18.556;2023-07-31T11:31:09;1.80;;;0.52;;
35188;SDS011;21762;54.480;18.556;2023-07-31T11:33:38;2.95;;;0.70;;
35188;SDS011;21762;54.480;18.556;2023-07-31T11:36:15;3.22;;;0.80;;
35188;SDS011;21762;54.480;18.556;2023-07-31T11:38:44;2.00;;;0.50;;
35188;SDS011;21762;54.480;18.556;2023-07-31T11:41:13;5.13;;;0.80;;
35188;SDS011;21762;54.480;18.556;2023-07-31T11:43:42;2.28;;;0.60;;
35188;SDS011;21762;54.480;18.556;2023-07-31T11:46:11;2.60;;;0.60;;
35188;SDS011;21762;54.480;18.556;2023-07-31T11:48:41;2.15;;;0.70;;
35188;SDS011;21762;54.480;18.556;2023-07-31T11:51:10;2.10;;;0.60;;
35188;SDS011;21762;54.480;18.556;2023-07-31T11:53:43;2.53;;;0.88;;
35188;SDS011;21762;54.480;18.556;2023-07-31T11:56:14;4.05;;;0.73;;
35188;SDS011;21762;54.480;18.556;2023-07-31T11:58:45;2.10;;;0.80;;
35188;SDS011;21762;54.480;18.556;2023-07-31T12:01:15;3.45;;;0.85;;
35188;SDS011;21762;54.480;18.556;2023-07-31T12:03:44;1.48;;;0.77;;
35188;SDS011;21762;54.480;18.556;2023-07-31T12:06:13;5.50;;;1.08;;
35188;SDS011;21762;54.480;18.556;2023-07-31T12:08:43;2.78;;;0.80;;
35188;SDS011;21762;54.480;18.556;2023-07-31T12:11:12;3.35;;;1.15;;
35188;SDS011;21762;54.480;18.556;2023-07-31T12:13:41;2.40;;;0.90;;
35188;SDS011;21762;54.480;18.556;2023-07-31T12:16:10;3.95;;;0.90;;
35188;SDS011;21762;54.480;18.556;2023-07-31T12:18:39;2.88;;;0.85;;
35188;SDS011;21762;54.480;18.556;2023-07-31T12:21:08;2.60;;;1.00;;
35188;SDS011;21762;54.480;18.556;2023-07-31T12:23:38;3.08;;;1.13;;
35188;SDS011;21762;54.480;18.556;2023-07-31T12:26:11;3.40;;;0.90;;
35188;SDS011;21762;54.480;18.556;2023-07-31T12:28:41;4.95;;;0.95;;
35188;SDS011;21762;54.480;18.556;2023-07-31T12:31:11;3.95;;;0.90;;
35188;SDS011;21762;54.480;18.556;2023-07-31T12:33:41;2.20;;;0.93;;
35188;SDS011;21762;54.480;18.556;2023-07-31T12:36:10;4.13;;;1.20;;
35188;SDS011;21762;54.480;18.556;2023-07-31T12:38:40;4.10;;;0.70;;
35188;SDS011;21762;54.480;18.556;2023-07-31T12:41:09;4.25;;;0.98;;
35188;SDS011;21762;54.480;18.556;2023-07-31T12:43:39;4.22;;;1.17;;
35188;SDS011;21762;54.480;18.556;2023-07-31T12:46:09;4.07;;;1.08;;
35188;SDS011;21762;54.480;18.556;2023-07-31T12:48:38;3.35;;;1.27;;
35188;SDS011;21762;54.480;18.556;2023-07-31T12:51:07;1.88;;;0.70;;
35188;SDS011;21762;54.480;18.556;2023-07-31T12:53:35;3.33;;;0.95;;
35188;SDS011;21762;54.480;18.556;2023-07-31T12:56:04;4.35;;;1.10;;
35188;SDS011;21762;54.480;18.556;2023-07-31T12:58:34;3.03;;;0.80;;
35188;SDS011;21762;54.480;18.556;2023-07-31T13:01:03;1.70;;;0.82;;
35188;SDS011;21762;54.480;18.556;2023-07-31T13:03:33;3.80;;;1.45;;
35188;SDS011;21762;54.480;18.556;2023-07-31T13:06:01;2.65;;;1.27;;
35188;SDS011;21762;54.480;18.556;2023-07-31T13:08:30;3.80;;;0.93;;
35188;SDS011;21762;54.480;18.556;2023-07-31T13:10:58;2.70;;;0.90;;
35188;SDS011;21762;54.480;18.556;2023-07-31T13:13:27;5.07;;;0.80;;
35188;SDS011;21762;54.480;18.556;2023-07-31T13:15:59;2.40;;;1.05;;
35188;SDS011;21762;54.480;18.556;2023-07-31T13:18:28;2.47;;;0.80;;
35188;SDS011;21762;54.480;18.556;2023-07-31T13:20:56;3.05;;;1.42;;
35188;SDS011;21762;54.480;18.556;2023-07-31T13:23:25;1.80;;;0.93;;
35188;SDS011;21762;54.480;18.556;2023-07-31T13:25:54;5.30;;;1.23;;
35188;SDS011;21762;54.480;18.556;2023-07-31T13:28:23;2.03;;;0.80;;
35188;SDS011;21762;54.480;18.556;2023-07-31T13:30:51;3.10;;;0.82;;
35188;SDS011;21762;54.480;18.556;2023-07-31T13:33:21;2.80;;;0.95;;
35188;SDS011;21762;54.480;18.556;2023-07-31T13:36:00;5.55;;;1.02;;
35188;SDS011;21762;54.480;18.556;2023-07-31T13:38:28;3.20;;;1.08;;
35188;SDS011;21762;54.480;18.556;2023-07-31T13:40:57;2.97;;;1.15;;
35188;SDS011;21762;54.480;18.556;2023-07-31T13:43:26;4.35;;;0.90;;
35188;SDS011;21762;54.480;18.556;2023-07-31T13:45:54;3.13;;;0.90;;
35188;SDS011;21762;54.480;18.556;2023-07-31T13:48:24;2.45;;;0.88;;
35188;SDS011;21762;54.480;18.556;2023-07-31T13:50:53;4.95;;;1.13;;
35188;SDS011;21762;54.480;18.556;2023-07-31T13:53:21;2.60;;;0.80;;
35188;SDS011;21762;54.480;18.556;2023-07-31T13:55:50;5.78;;;0.80;;
35188;SDS011;21762;54.480;18.556;2023-07-31T13:58:20;2.35;;;0.90;;
35188;SDS011;21762;54.480;18.556;2023-07-31T14:00:48;2.53;;;0.85;;
35188;SDS011;21762;54.480;18.556;2023-07-31T14:03:17;1.40;;;0.52;;
35188;SDS011;21762;54.480;18.556;2023-07-31T14:05:47;1.40;;;0.68;;
35188;SDS011;21762;54.480;18.556;2023-07-31T14:08:16;2.83;;;0.88;;
35188;SDS011;21762;54.480;18.556;2023-07-31T14:10:45;4.10;;;1.55;;
35188;SDS011;21762;54.480;18.556;2023-07-31T14:13:14;2.75;;;0.75;;
35188;SDS011;21762;54.480;18.556;2023-07-31T14:15:42;2.00;;;0.52;;
35188;SDS011;21762;54.480;18.556;2023-07-31T14:18:11;1.10;;;0.65;;
35188;SDS011;21762;54.480;18.556;2023-07-31T14:20:40;2.03;;;0.73;;
35188;SDS011;21762;54.480;18.556;2023-07-31T14:23:10;2.75;;;0.98;;
35188;SDS011;21762;54.480;18.556;2023-07-31T14:25:39;2.45;;;0.95;;
35188;SDS011;21762;54.480;18.556;2023-07-31T14:28:07;1.30;;;0.68;;
35188;SDS011;21762;54.480;18.556;2023-07-31T14:30:36;1.73;;;0.60;;
35188;SDS011;21762;54.480;18.556;2023-07-31T14:33:04;2.25;;;0.70;;
35188;SDS011;21762;54.480;18.556;2023-07-31T14:35:33;4.50;;;0.98;;
35188;SDS011;21762;54.480;18.556;2023-07-31T14:38:02;1.80;;;0.90;;
35188;SDS011;21762;54.480;18.556;2023-07-31T14:40:32;1.73;;;0.82;;
35188;SDS011;21762;54.480;18.556;2023-07-31T14:43:01;2.03;;;0.90;;
35188;SDS011;21762;54.480;18.556;2023-07-31T14:45:29;2.03;;;0.93;;
35188;SDS011;21762;54.480;18.556;2023-07-31T14:47:58;3.70;;;1.73;;
35188;SDS011;21762;54.480;18.556;2023-07-31T14:50:27;0.68;;;0.68;;
35188;SDS011;21762;54.480;18.556;2023-07-31T14:52:55;2.60;;;1.25;;
35188;SDS011;21762;54.480;18.556;2023-07-31T14:55:24;1.40;;;0.52;;
35188;SDS011;21762;54.480;18.556;2023-07-31T14:57:54;3.03;;;0.80;;
35188;SDS011;21762;54.480;18.556;2023-07-31T15:00:23;3.08;;;0.60;;